KGFA/GFA METAR and TAF weather

Enter ICAO airport designator
Station Type Date Time Source
KGFA METAR 2019/12/11 11:58 UTC NOAA

KGFA 111158Z AUTO 21009KT 10SM OVC140 01/M04 A2987 RMK AO2 SLP142 T00121041 10023 21087 57007 $


Station Type Date Time Source
KGFA Decoded METAR 2019/12/11 11:58 UTC NOAA

Malmstrom Air Force Base, MT, United States (KGFA) 47-30N 111-11W
Dec 11, 2019 - 06:58 AM EST / 2019.12.11 1158 UTC
Wind: from the SSW (210 degrees) at 10 MPH (9 KT):0
Visibility: 10 mile(s):0
Sky conditions: overcast
Temperature: 34.2 F (1.2 C)
Windchill: 26 F (-3 C):1
Dew Point: 24.6 F (-4.1 C)
Relative Humidity: 67%
Pressure (altimeter): 29.87 in. Hg (1011 hPa)
Pressure tendency: 0.02 inches (0.7 hPa) lower than three hours ago
ob: KGFA 111158Z AUTO 21009KT 10SM OVC140 01/M04 A2987 RMK AO2 SLP142 T00121041 10023 21087 57007
cycle: 12

Station Type Date Time Source
KGFA TAF 2019/12/11 11:05 UTC NOAA

TAF KGFA 111100Z 1111/1217 22012KT 9999 OVC100 QNH2985INS
BECMG 1114/1115 25015G25KT 9999 BKN050 QNH2989INS
BECMG 1123/1124 23009KT 9999 SCT080 QNH2991INS TX05/1121Z TNM06/1206Z

Example: see airport list